Pinckney, Michigan
Current Conditions -  °F | °C
As of 12:55 AM on Thursday 18 Dec 2014 (Local Time) from KOZW Reporting Station
Overcast Overcast  
Wind Chill: 17°   Ceiling: 2100
Heat Index: 27°   Visibility: 10mi
Dew Point: 22°   Wind: 13mph
Humidity: 81%   Direction: 260°W
Pressure: 30.16"   Gusts: 18mph
Location:  42.46°N, 83.95°W
Report Text: KOZW 180555Z AUTO 26011G16KT 10SM OVC021 M03/M05 A3016 RMK AO2 T10261054 11026 21031 400101031
Loading
Personal Weather Stations






























Interactive Weather Map New forecast layout! Learn more

10-Day Weather Forecast

Advertisements
Track Severe Weather on mobile